Weather reports worldwide

Advertisment
Konnerud, Norway (1477): temperature & dewpoint: 11.09.2019 23:00:00 - 17.09.2019 23:00:00 (CEST)Konnerud, Norway (1477): wind speed & gusts: 11.09.2019 23:00:00 - 17.09.2019 23:00:00 (CEST)Konnerud, Norway (1477): wind direction: 11.09.2019 23:00:00 - 17.09.2019 23:00:00 (CEST)Konnerud, Norway (1477): precipitation: 11.09.2019 23:00:00 - 17.09.2019 23:00:00 (CEST)
Date & Time tt [°C] td [°C] ff [km/h] ff [kn] fx [km/h] fx [kn] dd rr [mm]
17.09.2019 23:00:00 8,6 0,8 11 6 21 11 NW 0,0
17.09.2019 22:00:00 8,1 1,1 7 4 23 12 NW 0,0
17.09.2019 21:00:00 9,5 0,4 11 6 23 13 NW 0,0
17.09.2019 20:00:00 10,2 -0,3 11 6 - - NW 0,0
17.09.2019 19:00:00 10,5 -1,5 6 4 26 14 NW 0,0
17.09.2019 18:00:00 12,3 -1,9 10 5 23 12 NW 0,0
17.09.2019 17:00:00 13,0 -2,1 10 6 26 14 NW 0,0
17.09.2019 16:00:00 12,4 -1,5 10 5 30 16 N 0,0
17.09.2019 15:00:00 12,5 -1,8 13 7 28 15 NW 0,0
17.09.2019 14:00:00 12,1 -0,7 10 5 - - N 0,0
17.09.2019 13:00:00 12,7 0,2 10 6 32 17 N 0,0
17.09.2019 12:00:00 10,3 0,4 11 6 29 16 NW 0,0
17.09.2019 11:00:00 10,5 0,0 15 8 28 15 NW 0,0
17.09.2019 10:00:00 8,6 -0,7 7 4 18 10 NNW 0,0
17.09.2019 09:00:00 8,2 -0,5 8 5 23 13 W 0,0
17.09.2019 08:00:00 5,8 -1,3 6 3 - - WNW 0,0
17.09.2019 07:00:00 5,4 -1,3 6 3 19 11 WNW 0,0
17.09.2019 06:00:00 6,6 -1,3 9 5 24 13 NW 0,0
17.09.2019 05:00:00 7,4 0,2 11 6 25 13 WNW 0,0
17.09.2019 04:00:00 7,4 1,1 10 5 24 13 WNW 0,0
17.09.2019 03:00:00 5,1 2,3 4 2 12 7 NW 0,0
17.09.2019 02:00:00 4,7 3,2 2 1 - - ENE 0,0
17.09.2019 01:00:00 5,3 2,1 5 3 13 7 W 0,0
17.09.2019 00:00:00 3,7 3,3 3 2 10 5 WNW 0,0
16.09.2019 23:00:00 2,9 2,5 2 1 5 3 NW 0,0
16.09.2019 22:00:00 3,1 2,2 1 0 5 3 NNW 0,0
16.09.2019 21:00:00 4,6 3,4 3 2 6 3 NW 0,0
16.09.2019 20:00:00 5,5 3,5 1 1 - - NNW 0,0
16.09.2019 19:00:00 8,8 5,0 2 1 8 4 WNW 0,0
16.09.2019 18:00:00 11,8 3,1 3 2 18 10 W 0,0
16.09.2019 17:00:00 13,7 0,4 8 4 28 15 NW 0,0
16.09.2019 16:00:00 14,9 -0,4 10 5 32 17 WNW 0,0
16.09.2019 15:00:00 15,0 -0,3 11 6 31 17 NW 0,0
16.09.2019 14:00:00 14,9 -0,8 11 6 - - NW 0,0
16.09.2019 13:00:00 14,3 -0,5 13 7 38 21 NW 0,0
16.09.2019 12:00:00 13,7 -0,7 14 7 33 18 NW 0,0
16.09.2019 11:00:00 13,3 0,7 8 4 28 15 NNW 0,0
16.09.2019 10:00:00 12,0 1,1 10 6 34 18 NW 0,0
16.09.2019 09:00:00 10,3 -0,5 9 5 22 12 WNW 0,0
16.09.2019 08:00:00 8,6 0,4 7 4 - - WNW 0,0
16.09.2019 07:00:00 8,2 -0,5 7 4 27 14 NNW 0,0
16.09.2019 06:00:00 9,1 -1,3 13 7 35 19 NW 0,0
16.09.2019 05:00:00 8,8 -1,0 8 4 22 12 WNW 0,0
16.09.2019 04:00:00 9,2 -1,2 12 7 36 19 WNW 0,0
16.09.2019 03:00:00 9,4 -1,3 13 7 35 19 NW 0,0
16.09.2019 02:00:00 9,4 -1,0 8 4 - - NW 0,0
16.09.2019 01:00:00 10,5 0,0 11 6 34 19 WNW 0,0
16.09.2019 00:00:00 11,3 0,7 11 6 43 23 W 0,0
15.09.2019 23:00:00 12,3 1,0 16 9 49 27 WNW 0,0
15.09.2019 22:00:00 12,4 2,0 11 6 47 25 WNW 0,2
15.09.2019 21:00:00 12,9 2,2 15 8 42 23 NW 0,0
15.09.2019 20:00:00 13,0 2,9 11 6 - - W 0,0
15.09.2019 19:00:00 14,0 2,9 14 8 45 24 WNW 0,0
15.09.2019 18:00:00 15,3 2,5 18 10 53 28 WNW 0,0
15.09.2019 17:00:00 15,9 3,4 12 7 40 22 W 0,0
15.09.2019 16:00:00 16,4 3,5 13 7 40 22 W 0,0
15.09.2019 15:00:00 16,3 2,7 17 9 50 27 W 0,0
15.09.2019 14:00:00 16,1 2,9 15 8 - - W 0,0
15.09.2019 13:00:00 15,2 2,1 15 8 48 26 W 0,0
15.09.2019 12:00:00 14,1 1,7 16 9 37 20 WNW 0,0
15.09.2019 11:00:00 13,5 2,4 15 8 49 27 WNW 0,0
15.09.2019 10:00:00 12,6 1,6 15 8 36 19 W 0,0
15.09.2019 09:00:00 11,9 3,4 7 4 29 16 W 0,0
15.09.2019 08:00:00 10,6 3,6 7 4 - - W 0,0
15.09.2019 07:00:00 8,2 3,9 4 2 12 7 WNW 0,0
15.09.2019 06:00:00 9,3 4,9 4 2 23 12 SW 0,0
15.09.2019 05:00:00 10,8 6,6 6 3 26 14 W 0,0
15.09.2019 04:00:00 11,3 6,9 9 5 33 18 WSW 0,0
15.09.2019 03:00:00 10,2 8,8 4 2 12 7 S 0,0
15.09.2019 02:00:00 9,8 8,4 4 2 - - W 0,0
15.09.2019 01:00:00 10,8 7,9 5 3 16 9 ESE 0,0
15.09.2019 00:00:00 10,5 7,0 5 3 22 12 SE 0,0
14.09.2019 23:00:00 11,0 6,7 11 6 26 14 SSW 0,0
14.09.2019 22:00:00 11,1 6,3 8 4 24 13 SE 0,0
14.09.2019 21:00:00 11,1 6,5 3 2 21 11 WSW 0,0
14.09.2019 20:00:00 12,1 6,2 9 5 - - SSW 0,0
14.09.2019 19:00:00 12,0 7,7 5 3 16 9 S 0,0
14.09.2019 18:00:00 12,1 8,0 6 4 17 9 S 0,0
14.09.2019 17:00:00 11,1 8,3 4 2 16 9 S 0,0
14.09.2019 16:00:00 11,7 7,2 8 4 16 9 SE 0,0
14.09.2019 15:00:00 12,0 6,5 6 3 13 7 S 0,0
14.09.2019 14:00:00 12,4 5,3 5 3 - - SSE 0,0
14.09.2019 13:00:00 11,6 4,8 6 3 12 7 S 0,0
14.09.2019 12:00:00 10,2 5,8 5 3 8 5 SE 0,0
14.09.2019 11:00:00 9,5 8,0 1 1 10 5 NE 0,0
14.09.2019 10:00:00 - - - - - - - -
14.09.2019 09:00:00 6,5 6,5 0 0 6 4 N 0,0
14.09.2019 08:00:00 3,8 3,8 4 2 - - WNW 0,0
14.09.2019 07:00:00 2,4 2,3 2 1 4 2 WNW 0,0
14.09.2019 06:00:00 2,7 2,6 3 1 5 3 NW 0,0
14.09.2019 05:00:00 2,1 2,0 3 2 5 3 NW 0,0
14.09.2019 04:00:00 1,6 1,5 4 2 6 3 WNW 0,0
14.09.2019 03:00:00 2,0 1,9 4 2 6 3 NW 0,0
14.09.2019 02:00:00 2,1 1,8 4 2 - - WNW 0,0
14.09.2019 01:00:00 3,1 2,8 4 2 8 4 NW 0,0
14.09.2019 00:00:00 3,4 2,8 3 2 6 3 NW 0,0
13.09.2019 23:00:00 4,8 4,1 4 2 - - NW 0,0
13.09.2019 22:00:00 7,5 4,5 0 0 - - N 0,0
13.09.2019 21:00:00 8,6 5,0 4 2 - - WNW 0,0
13.09.2019 20:00:00 11,4 4,4 4 2 - - W -
13.09.2019 19:00:00 - - - - - - - -
13.09.2019 18:00:00 12,2 6,5 4 2 - - W 0,0
13.09.2019 17:00:00 15,2 3,4 4 2 - - WNW 0,0
13.09.2019 16:00:00 16,2 3,0 11 6 - - NW 0,0
13.09.2019 15:00:00 16,6 2,3 11 6 - - WNW 0,0
13.09.2019 14:00:00 17,0 2,6 11 6 - - W -
13.09.2019 13:00:00 16,5 3,2 11 6 - - WNW 0,0
13.09.2019 12:00:00 - - - - - - - -
13.09.2019 11:00:00 14,5 3,9 8 4 23 13 NW 0,0
13.09.2019 10:00:00 13,5 3,6 8 5 24 13 WNW 0,0
13.09.2019 09:00:00 12,3 3,5 9 5 24 13 WNW 0,0
13.09.2019 08:00:00 10,4 3,5 9 5 - - NW 0,0
13.09.2019 07:00:00 9,5 3,3 9 5 26 14 WNW 0,0
13.09.2019 06:00:00 9,5 3,3 10 5 27 14 WNW 0,0
13.09.2019 05:00:00 9,3 4,7 10 5 23 12 NW 0,0
13.09.2019 04:00:00 5,8 5,4 3 1 8 5 WNW 0,0
13.09.2019 03:00:00 5,7 5,4 2 1 9 5 NNW 0,0
13.09.2019 02:00:00 6,2 5,9 1 1 - - NW 0,0
13.09.2019 01:00:00 7,0 6,9 2 1 6 3 NNW 0,0
13.09.2019 00:00:00 6,7 6,4 3 1 5 3 W 0,0
12.09.2019 23:00:00 7,1 6,7 1 0 6 3 NNW 0,0
12.09.2019 22:00:00 8,0 7,2 1 0 6 4 NNW 0,0
12.09.2019 21:00:00 9,5 8,0 4 2 9 5 SW 0,0
12.09.2019 20:00:00 12,4 7,1 3 2 - - SW 0,0
12.09.2019 19:00:00 14,4 7,0 6 4 18 10 WSW 0,0
12.09.2019 18:00:00 15,3 7,4 5 3 13 7 SW 0,0
12.09.2019 17:00:00 16,1 6,5 5 3 28 15 SW 0,0
12.09.2019 16:00:00 17,8 7,3 9 5 - - WSW 0,0
12.09.2019 15:00:00 16,6 7,3 7 4 23 12 SSW 0,0
12.09.2019 14:00:00 16,1 9,1 6 3 - - WSW 0,0
12.09.2019 13:00:00 17,1 8,3 8 4 23 13 SW 0,0
12.09.2019 12:00:00 15,6 9,1 8 4 26 14 WSW 0,0
12.09.2019 11:00:00 13,8 9,3 3 2 14 7 SSE 0,0
12.09.2019 10:00:00 12,9 9,4 4 2 14 8 NW 0,0
12.09.2019 09:00:00 11,9 11,9 3 1 7 4 ESE 0,0
12.09.2019 08:00:00 8,1 8,1 1 0 - - NNE 0,0
12.09.2019 07:00:00 6,0 6,0 3 1 6 3 NNW 0,0
12.09.2019 06:00:00 6,7 6,7 0 0 4 2 N 0,0
12.09.2019 05:00:00 6,7 6,7 4 2 6 4 NW 0,0
12.09.2019 04:00:00 5,2 5,1 3 2 6 3 NW 0,0
12.09.2019 03:00:00 5,3 5,2 3 1 5 3 NW 0,0
12.09.2019 02:00:00 6,4 6,2 2 1 - - NW 0,0
12.09.2019 01:00:00 7,2 7,0 1 1 4 2 NNW 0,0
12.09.2019 00:00:00 8,9 8,7 3 1 11 6 WNW 0,0
11.09.2019 23:00:00 9,2 8,9 1 0 5 3 NNW 0,0

tt = temperature
td = dewpoint
ff = wind speed
fx = gusts
dd = wind direction
rr = precipitation

Next stations